sensor_id;sensor_type;location;lat;lon;timestamp;temperature;humidity
54518;DHT22;40423;53.176;6.002;2023-07-29T00:00:58;19.50;99.90
54518;DHT22;40423;53.176;6.002;2023-07-29T00:03:25;19.50;99.90
54518;DHT22;40423;53.176;6.002;2023-07-29T00:05:51;19.50;99.90
54518;DHT22;40423;53.176;6.002;2023-07-29T00:08:17;19.40;99.90
54518;DHT22;40423;53.176;6.002;2023-07-29T00:10:42;19.50;99.90
54518;DHT22;40423;53.176;6.002;2023-07-29T00:13:08;19.40;99.90
54518;DHT22;40423;53.176;6.002;2023-07-29T00:15:34;19.40;99.90
54518;DHT22;40423;53.176;6.002;2023-07-29T00:18:00;19.40;99.90
54518;DHT22;40423;53.176;6.002;2023-07-29T00:20:26;19.40;99.90
54518;DHT22;40423;53.176;6.002;2023-07-29T00:22:52;19.30;99.90
54518;DHT22;40423;53.176;6.002;2023-07-29T00:25:21;19.40;99.90
54518;DHT22;40423;53.176;6.002;2023-07-29T00:27:47;19.40;99.90
54518;DHT22;40423;53.176;6.002;2023-07-29T00:30:13;19.30;99.90
54518;DHT22;40423;53.176;6.002;2023-07-29T00:32:39;19.30;99.90
54518;DHT22;40423;53.176;6.002;2023-07-29T00:35:05;19.30;99.90
54518;DHT22;40423;53.176;6.002;2023-07-29T00:37:31;19.30;99.90
54518;DHT22;40423;53.176;6.002;2023-07-29T00:39:57;19.30;99.90
54518;DHT22;40423;53.176;6.002;2023-07-29T00:42:24;19.30;99.90
54518;DHT22;40423;53.176;6.002;2023-07-29T00:44:50;19.20;99.90
54518;DHT22;40423;53.176;6.002;2023-07-29T00:47:16;19.20;99.90
54518;DHT22;40423;53.176;6.002;2023-07-29T00:49:43;19.20;99.90
54518;DHT22;40423;53.176;6.002;2023-07-29T00:52:10;19.20;99.90
54518;DHT22;40423;53.176;6.002;2023-07-29T00:54:41;19.20;99.90
54518;DHT22;40423;53.176;6.002;2023-07-29T00:57:08;19.20;99.90
54518;DHT22;40423;53.176;6.002;2023-07-29T00:59:36;19.20;99.90
54518;DHT22;40423;53.176;6.002;2023-07-29T01:02:02;19.20;99.90
54518;DHT22;40423;53.176;6.002;2023-07-29T01:04:28;19.20;99.90
54518;DHT22;40423;53.176;6.002;2023-07-29T01:09:42;19.20;99.90
54518;DHT22;40423;53.176;6.002;2023-07-29T01:17:30;19.10;99.90
54518;DHT22;40423;53.176;6.002;2023-07-29T01:22:29;19.10;99.90
54518;DHT22;40423;53.176;6.002;2023-07-29T01:24:57;19.00;99.90
54518;DHT22;40423;53.176;6.002;2023-07-29T01:27:23;19.10;99.90
54518;DHT22;40423;53.176;6.002;2023-07-29T01:29:49;19.00;99.90
54518;DHT22;40423;53.176;6.002;2023-07-29T01:32:20;19.00;99.90
54518;DHT22;40423;53.176;6.002;2023-07-29T01:35:00;19.00;99.90
54518;DHT22;40423;53.176;6.002;2023-07-29T01:37:31;19.00;99.90
54518;DHT22;40423;53.176;6.002;2023-07-29T01:39:59;19.00;99.90
54518;DHT22;40423;53.176;6.002;2023-07-29T01:42:25;19.00;99.90
54518;DHT22;40423;53.176;6.002;2023-07-29T01:44:52;19.00;99.90
54518;DHT22;40423;53.176;6.002;2023-07-29T01:47:18;19.00;99.90
54518;DHT22;40423;53.176;6.002;2023-07-29T01:49:44;19.00;99.90
54518;DHT22;40423;53.176;6.002;2023-07-29T01:52:09;19.00;99.90
54518;DHT22;40423;53.176;6.002;2023-07-29T01:54:35;18.90;99.90
54518;DHT22;40423;53.176;6.002;2023-07-29T01:57:01;19.00;99.90
54518;DHT22;40423;53.176;6.002;2023-07-29T01:59:27;18.90;99.90
54518;DHT22;40423;53.176;6.002;2023-07-29T02:01:52;18.90;99.90
54518;DHT22;40423;53.176;6.002;2023-07-29T02:04:18;18.90;99.90
54518;DHT22;40423;53.176;6.002;2023-07-29T02:06:44;18.90;99.90
54518;DHT22;40423;53.176;6.002;2023-07-29T02:09:09;18.90;99.90
54518;DHT22;40423;53.176;6.002;2023-07-29T02:11:35;18.90;99.90
54518;DHT22;40423;53.176;6.002;2023-07-29T02:14:04;18.80;99.90
54518;DHT22;40423;53.176;6.002;2023-07-29T02:16:29;18.80;99.90
54518;DHT22;40423;53.176;6.002;2023-07-29T02:18:55;18.80;99.90
54518;DHT22;40423;53.176;6.002;2023-07-29T02:21:21;18.80;99.90
54518;DHT22;40423;53.176;6.002;2023-07-29T02:23:47;18.70;99.90
54518;DHT22;40423;53.176;6.002;2023-07-29T02:26:12;18.70;99.90
54518;DHT22;40423;53.176;6.002;2023-07-29T02:28:38;18.70;99.90
54518;DHT22;40423;53.176;6.002;2023-07-29T02:31:20;18.70;99.90
54518;DHT22;40423;53.176;6.002;2023-07-29T02:33:46;18.70;99.90
54518;DHT22;40423;53.176;6.002;2023-07-29T02:36:13;18.60;99.90
54518;DHT22;40423;53.176;6.002;2023-07-29T02:38:40;18.60;99.90
54518;DHT22;40423;53.176;6.002;2023-07-29T02:41:06;18.60;99.90
54518;DHT22;40423;53.176;6.002;2023-07-29T02:43:31;18.50;99.90
54518;DHT22;40423;53.176;6.002;2023-07-29T02:45:57;18.50;99.90
54518;DHT22;40423;53.176;6.002;2023-07-29T02:48:29;18.50;99.90
54518;DHT22;40423;53.176;6.002;2023-07-29T02:50:55;18.50;99.90
54518;DHT22;40423;53.176;6.002;2023-07-29T02:53:22;18.40;99.90
54518;DHT22;40423;53.176;6.002;2023-07-29T02:55:48;18.40;99.90
54518;DHT22;40423;53.176;6.002;2023-07-29T02:58:13;18.40;99.90
54518;DHT22;40423;53.176;6.002;2023-07-29T03:00:39;18.40;99.90
54518;DHT22;40423;53.176;6.002;2023-07-29T03:03:07;18.30;99.90
54518;DHT22;40423;53.176;6.002;2023-07-29T03:05:36;18.30;99.90
54518;DHT22;40423;53.176;6.002;2023-07-29T03:08:03;18.30;99.90
54518;DHT22;40423;53.176;6.002;2023-07-29T03:10:29;18.30;99.90
54518;DHT22;40423;53.176;6.002;2023-07-29T03:12:58;18.20;99.90
54518;DHT22;40423;53.176;6.002;2023-07-29T03:15:24;18.20;99.90
54518;DHT22;40423;53.176;6.002;2023-07-29T03:17:53;18.20;99.90
54518;DHT22;40423;53.176;6.002;2023-07-29T03:20:19;18.20;99.90
54518;DHT22;40423;53.176;6.002;2023-07-29T03:22:45;18.20;99.90
54518;DHT22;40423;53.176;6.002;2023-07-29T03:25:11;18.10;99.90
54518;DHT22;40423;53.176;6.002;2023-07-29T03:27:37;18.10;99.90
54518;DHT22;40423;53.176;6.002;2023-07-29T03:30:04;18.10;99.90
54518;DHT22;40423;53.176;6.002;2023-07-29T03:32:29;18.10;99.90
54518;DHT22;40423;53.176;6.002;2023-07-29T03:34:55;18.00;99.90
54518;DHT22;40423;53.176;6.002;2023-07-29T03:37:21;18.00;99.90
54518;DHT22;40423;53.176;6.002;2023-07-29T03:39:47;18.00;99.90
54518;DHT22;40423;53.176;6.002;2023-07-29T03:42:13;18.00;99.90
54518;DHT22;40423;53.176;6.002;2023-07-29T03:44:41;18.00;99.90
54518;DHT22;40423;53.176;6.002;2023-07-29T03:47:07;18.00;99.90
54518;DHT22;40423;53.176;6.002;2023-07-29T03:49:36;18.00;99.90
54518;DHT22;40423;53.176;6.002;2023-07-29T03:52:02;17.90;99.90
54518;DHT22;40423;53.176;6.002;2023-07-29T03:54:31;17.90;99.90
54518;DHT22;40423;53.176;6.002;2023-07-29T03:56:56;17.90;99.90
54518;DHT22;40423;53.176;6.002;2023-07-29T03:59:22;17.80;99.90
54518;DHT22;40423;53.176;6.002;2023-07-29T04:01:48;17.80;99.90
54518;DHT22;40423;53.176;6.002;2023-07-29T04:04:14;17.80;99.90
54518;DHT22;40423;53.176;6.002;2023-07-29T04:06:39;17.80;99.90
54518;DHT22;40423;53.176;6.002;2023-07-29T04:09:05;17.80;99.90
54518;DHT22;40423;53.176;6.002;2023-07-29T04:11:31;17.70;99.90
54518;DHT22;40423;53.176;6.002;2023-07-29T04:13:56;17.70;99.90
54518;DHT22;40423;53.176;6.002;2023-07-29T04:16:22;17.70;99.90
54518;DHT22;40423;53.176;6.002;2023-07-29T04:18:48;17.80;99.90
54518;DHT22;40423;53.176;6.002;2023-07-29T04:21:13;17.70;99.90
54518;DHT22;40423;53.176;6.002;2023-07-29T04:23:39;17.70;99.90
54518;DHT22;40423;53.176;6.002;2023-07-29T04:26:05;17.70;99.90
54518;DHT22;40423;53.176;6.002;2023-07-29T04:28:31;17.70;99.90
54518;DHT22;40423;53.176;6.002;2023-07-29T04:30:57;17.70;99.90
54518;DHT22;40423;53.176;6.002;2023-07-29T04:33:23;17.70;99.90
54518;DHT22;40423;53.176;6.002;2023-07-29T04:35:48;17.70;99.90
54518;DHT22;40423;53.176;6.002;2023-07-29T04:38:14;17.80;99.90
54518;DHT22;40423;53.176;6.002;2023-07-29T04:40:40;17.70;99.90
54518;DHT22;40423;53.176;6.002;2023-07-29T04:43:06;17.70;99.90
54518;DHT22;40423;53.176;6.002;2023-07-29T04:45:31;17.80;99.90
54518;DHT22;40423;53.176;6.002;2023-07-29T04:48:00;17.80;99.90
54518;DHT22;40423;53.176;6.002;2023-07-29T04:50:26;17.80;99.90
54518;DHT22;40423;53.176;6.002;2023-07-29T04:52:51;17.70;99.90
54518;DHT22;40423;53.176;6.002;2023-07-29T04:55:18;17.80;99.90
54518;DHT22;40423;53.176;6.002;2023-07-29T04:57:44;17.80;99.90
54518;DHT22;40423;53.176;6.002;2023-07-29T05:00:10;17.80;99.90
54518;DHT22;40423;53.176;6.002;2023-07-29T05:02:36;17.80;99.90
54518;DHT22;40423;53.176;6.002;2023-07-29T05:05:02;17.80;99.90
54518;DHT22;40423;53.176;6.002;2023-07-29T05:07:28;17.80;99.90
54518;DHT22;40423;53.176;6.002;2023-07-29T05:09:53;17.90;99.90
54518;DHT22;40423;53.176;6.002;2023-07-29T05:12:19;17.90;99.90
54518;DHT22;40423;53.176;6.002;2023-07-29T05:14:45;17.90;99.90
54518;DHT22;40423;53.176;6.002;2023-07-29T05:17:11;17.90;99.90
54518;DHT22;40423;53.176;6.002;2023-07-29T05:19:36;17.90;99.90
54518;DHT22;40423;53.176;6.002;2023-07-29T05:22:02;17.90;99.90
54518;DHT22;40423;53.176;6.002;2023-07-29T05:24:28;18.00;99.90
54518;DHT22;40423;53.176;6.002;2023-07-29T05:26:53;18.00;99.90
54518;DHT22;40423;53.176;6.002;2023-07-29T05:29:19;18.00;99.90
54518;DHT22;40423;53.176;6.002;2023-07-29T05:31:45;18.00;99.90
54518;DHT22;40423;53.176;6.002;2023-07-29T05:34:10;18.00;99.90
54518;DHT22;40423;53.176;6.002;2023-07-29T05:36:36;18.00;99.90
54518;DHT22;40423;53.176;6.002;2023-07-29T05:39:02;18.00;99.90
54518;DHT22;40423;53.176;6.002;2023-07-29T05:41:28;18.10;99.90
54518;DHT22;40423;53.176;6.002;2023-07-29T05:43:54;18.10;99.90
54518;DHT22;40423;53.176;6.002;2023-07-29T05:46:20;18.10;99.90
54518;DHT22;40423;53.176;6.002;2023-07-29T05:48:45;18.10;99.90
54518;DHT22;40423;53.176;6.002;2023-07-29T05:51:11;18.10;99.90
54518;DHT22;40423;53.176;6.002;2023-07-29T05:53:37;18.10;99.90
54518;DHT22;40423;53.176;6.002;2023-07-29T05:56:03;18.10;99.90
54518;DHT22;40423;53.176;6.002;2023-07-29T05:58:28;18.20;99.90
54518;DHT22;40423;53.176;6.002;2023-07-29T06:00:57;18.20;99.90
54518;DHT22;40423;53.176;6.002;2023-07-29T06:03:22;18.20;99.90
54518;DHT22;40423;53.176;6.002;2023-07-29T06:05:49;18.30;99.90
54518;DHT22;40423;53.176;6.002;2023-07-29T06:08:15;18.30;99.90
54518;DHT22;40423;53.176;6.002;2023-07-29T06:10:41;18.40;99.90
54518;DHT22;40423;53.176;6.002;2023-07-29T06:13:06;18.50;99.90
54518;DHT22;40423;53.176;6.002;2023-07-29T06:15:32;18.60;99.90
54518;DHT22;40423;53.176;6.002;2023-07-29T06:17:58;18.60;99.90
54518;DHT22;40423;53.176;6.002;2023-07-29T06:20:23;18.60;99.90
54518;DHT22;40423;53.176;6.002;2023-07-29T06:22:49;18.70;99.90
54518;DHT22;40423;53.176;6.002;2023-07-29T06:25:18;18.70;99.90
54518;DHT22;40423;53.176;6.002;2023-07-29T06:27:44;18.70;99.90
54518;DHT22;40423;53.176;6.002;2023-07-29T06:30:09;18.80;99.90
54518;DHT22;40423;53.176;6.002;2023-07-29T06:32:35;18.80;99.90
54518;DHT22;40423;53.176;6.002;2023-07-29T06:35:01;19.10;99.90
54518;DHT22;40423;53.176;6.002;2023-07-29T06:37:27;19.00;99.90
54518;DHT22;40423;53.176;6.002;2023-07-29T06:39:53;19.10;99.90
54518;DHT22;40423;53.176;6.002;2023-07-29T06:42:18;19.20;99.90
54518;DHT22;40423;53.176;6.002;2023-07-29T06:44:44;19.20;99.90
54518;DHT22;40423;53.176;6.002;2023-07-29T06:47:11;19.30;99.90
54518;DHT22;40423;53.176;6.002;2023-07-29T06:49:37;19.30;99.90
54518;DHT22;40423;53.176;6.002;2023-07-29T06:52:03;19.30;99.90
54518;DHT22;40423;53.176;6.002;2023-07-29T06:54:31;19.20;99.90
54518;DHT22;40423;53.176;6.002;2023-07-29T06:56:57;19.10;99.90
54518;DHT22;40423;53.176;6.002;2023-07-29T06:59:23;19.10;99.90
54518;DHT22;40423;53.176;6.002;2023-07-29T07:01:50;19.10;99.90
54518;DHT22;40423;53.176;6.002;2023-07-29T07:04:16;19.10;99.90
54518;DHT22;40423;53.176;6.002;2023-07-29T07:06:41;19.10;99.90
54518;DHT22;40423;53.176;6.002;2023-07-29T07:09:07;19.10;99.90
54518;DHT22;40423;53.176;6.002;2023-07-29T07:11:33;19.10;99.90
54518;DHT22;40423;53.176;6.002;2023-07-29T07:13:59;19.10;99.90
54518;DHT22;40423;53.176;6.002;2023-07-29T07:16:24;19.10;99.90
54518;DHT22;40423;53.176;6.002;2023-07-29T07:18:50;19.20;99.90
54518;DHT22;40423;53.176;6.002;2023-07-29T07:21:16;19.30;99.90
54518;DHT22;40423;53.176;6.002;2023-07-29T07:23:42;19.30;99.90
54518;DHT22;40423;53.176;6.002;2023-07-29T07:26:08;19.30;99.90
54518;DHT22;40423;53.176;6.002;2023-07-29T07:28:33;19.30;99.90
54518;DHT22;40423;53.176;6.002;2023-07-29T07:30:59;19.40;99.90
54518;DHT22;40423;53.176;6.002;2023-07-29T07:33:25;19.40;99.90
54518;DHT22;40423;53.176;6.002;2023-07-29T07:35:50;19.50;99.90
54518;DHT22;40423;53.176;6.002;2023-07-29T07:38:16;19.60;99.90
54518;DHT22;40423;53.176;6.002;2023-07-29T07:40:42;19.70;99.90
54518;DHT22;40423;53.176;6.002;2023-07-29T07:43:07;19.90;99.90
54518;DHT22;40423;53.176;6.002;2023-07-29T07:45:36;20.00;99.90
54518;DHT22;40423;53.176;6.002;2023-07-29T07:48:02;20.20;99.90
54518;DHT22;40423;53.176;6.002;2023-07-29T07:50:31;20.20;99.90
54518;DHT22;40423;53.176;6.002;2023-07-29T07:52:57;20.20;99.90
54518;DHT22;40423;53.176;6.002;2023-07-29T07:55:23;20.00;99.90
54518;DHT22;40423;53.176;6.002;2023-07-29T07:57:49;20.00;99.90
54518;DHT22;40423;53.176;6.002;2023-07-29T08:00:14;20.10;99.90
54518;DHT22;40423;53.176;6.002;2023-07-29T08:02:44;20.10;99.90
54518;DHT22;40423;53.176;6.002;2023-07-29T08:05:10;20.20;99.90
54518;DHT22;40423;53.176;6.002;2023-07-29T08:07:36;20.20;99.90
54518;DHT22;40423;53.176;6.002;2023-07-29T08:10:02;20.20;99.90
54518;DHT22;40423;53.176;6.002;2023-07-29T08:12:27;20.20;99.90
54518;DHT22;40423;53.176;6.002;2023-07-29T08:14:53;20.30;99.90
54518;DHT22;40423;53.176;6.002;2023-07-29T08:17:19;20.30;99.90
54518;DHT22;40423;53.176;6.002;2023-07-29T08:19:47;20.30;99.90
54518;DHT22;40423;53.176;6.002;2023-07-29T08:22:16;20.40;99.90
54518;DHT22;40423;53.176;6.002;2023-07-29T08:24:43;20.30;99.90
54518;DHT22;40423;53.176;6.002;2023-07-29T08:27:08;20.30;99.90
54518;DHT22;40423;53.176;6.002;2023-07-29T08:29:34;20.30;99.90
54518;DHT22;40423;53.176;6.002;2023-07-29T08:32:00;20.30;99.90
54518;DHT22;40423;53.176;6.002;2023-07-29T08:34:25;20.20;99.90
54518;DHT22;40423;53.176;6.002;2023-07-29T08:36:51;20.20;99.90
54518;DHT22;40423;53.176;6.002;2023-07-29T08:39:17;20.20;99.90
54518;DHT22;40423;53.176;6.002;2023-07-29T08:41:49;20.20;99.90
54518;DHT22;40423;53.176;6.002;2023-07-29T08:44:23;20.30;99.90
54518;DHT22;40423;53.176;6.002;2023-07-29T08:46:49;20.40;99.90
54518;DHT22;40423;53.176;6.002;2023-07-29T08:49:18;20.40;99.90
54518;DHT22;40423;53.176;6.002;2023-07-29T08:51:47;20.40;99.90
54518;DHT22;40423;53.176;6.002;2023-07-29T08:54:14;20.50;99.90
54518;DHT22;40423;53.176;6.002;2023-07-29T08:56:41;20.50;99.90
54518;DHT22;40423;53.176;6.002;2023-07-29T08:59:08;20.50;99.90
54518;DHT22;40423;53.176;6.002;2023-07-29T09:01:34;20.60;99.90
54518;DHT22;40423;53.176;6.002;2023-07-29T09:04:00;20.60;99.90
54518;DHT22;40423;53.176;6.002;2023-07-29T09:06:26;20.70;99.90
54518;DHT22;40423;53.176;6.002;2023-07-29T09:08:56;20.60;99.90
54518;DHT22;40423;53.176;6.002;2023-07-29T09:11:22;20.70;99.90
54518;DHT22;40423;53.176;6.002;2023-07-29T09:13:48;20.80;99.90
54518;DHT22;40423;53.176;6.002;2023-07-29T09:16:14;20.80;99.90
54518;DHT22;40423;53.176;6.002;2023-07-29T09:18:40;20.80;99.90
54518;DHT22;40423;53.176;6.002;2023-07-29T09:21:08;20.80;99.90
54518;DHT22;40423;53.176;6.002;2023-07-29T09:23:41;20.90;99.90
54518;DHT22;40423;53.176;6.002;2023-07-29T09:26:08;21.00;99.90
54518;DHT22;40423;53.176;6.002;2023-07-29T09:28:38;21.10;99.90
54518;DHT22;40423;53.176;6.002;2023-07-29T09:31:04;21.00;99.90
54518;DHT22;40423;53.176;6.002;2023-07-29T09:33:33;21.00;99.90
54518;DHT22;40423;53.176;6.002;2023-07-29T09:36:01;21.00;99.90
54518;DHT22;40423;53.176;6.002;2023-07-29T09:38:28;20.90;99.90
54518;DHT22;40423;53.176;6.002;2023-07-29T09:40:57;21.00;99.90
54518;DHT22;40423;53.176;6.002;2023-07-29T09:43:30;20.90;99.90
54518;DHT22;40423;53.176;6.002;2023-07-29T09:46:03;21.00;99.90
54518;DHT22;40423;53.176;6.002;2023-07-29T09:48:38;21.10;99.90
54518;DHT22;40423;53.176;6.002;2023-07-29T09:51:14;21.30;99.90
54518;DHT22;40423;53.176;6.002;2023-07-29T09:53:45;21.40;99.90
54518;DHT22;40423;53.176;6.002;2023-07-29T09:56:12;21.40;99.90
54518;DHT22;40423;53.176;6.002;2023-07-29T09:58:39;21.50;99.90
54518;DHT22;40423;53.176;6.002;2023-07-29T10:01:06;21.50;99.90
54518;DHT22;40423;53.176;6.002;2023-07-29T10:03:33;21.60;99.90
54518;DHT22;40423;53.176;6.002;2023-07-29T10:06:01;21.60;99.90
54518;DHT22;40423;53.176;6.002;2023-07-29T10:08:30;21.60;99.90
54518;DHT22;40423;53.176;6.002;2023-07-29T10:11:05;21.50;99.90
54518;DHT22;40423;53.176;6.002;2023-07-29T10:13:32;21.40;99.90
54518;DHT22;40423;53.176;6.002;2023-07-29T10:15:59;21.40;99.90
54518;DHT22;40423;53.176;6.002;2023-07-29T10:18:28;21.70;99.90
54518;DHT22;40423;53.176;6.002;2023-07-29T10:20:56;21.80;99.90
54518;DHT22;40423;53.176;6.002;2023-07-29T10:23:24;21.90;99.90
54518;DHT22;40423;53.176;6.002;2023-07-29T10:25:55;22.00;99.90
54518;DHT22;40423;53.176;6.002;2023-07-29T10:28:25;22.10;99.90
54518;DHT22;40423;53.176;6.002;2023-07-29T10:30:52;22.30;99.90
54518;DHT22;40423;53.176;6.002;2023-07-29T10:33:17;22.40;99.90
54518;DHT22;40423;53.176;6.002;2023-07-29T10:35:43;22.40;99.90
54518;DHT22;40423;53.176;6.002;2023-07-29T10:38:09;22.20;99.90
54518;DHT22;40423;53.176;6.002;2023-07-29T10:40:47;22.00;99.90
54518;DHT22;40423;53.176;6.002;2023-07-29T10:43:32;21.90;99.90
54518;DHT22;40423;53.176;6.002;2023-07-29T10:45:58;21.90;99.90
54518;DHT22;40423;53.176;6.002;2023-07-29T10:48:41;21.80;99.90
54518;DHT22;40423;53.176;6.002;2023-07-29T10:51:28;21.90;99.90
54518;DHT22;40423;53.176;6.002;2023-07-29T10:54:13;21.90;99.90
54518;DHT22;40423;53.176;6.002;2023-07-29T10:56:41;22.10;99.90
54518;DHT22;40423;53.176;6.002;2023-07-29T11:01:50;22.20;99.90
54518;DHT22;40423;53.176;6.002;2023-07-29T11:17:42;20.90;99.90
54518;DHT22;40423;53.176;6.002;2023-07-29T11:20:09;20.90;99.90
54518;DHT22;40423;53.176;6.002;2023-07-29T11:22:35;21.00;99.90
54518;DHT22;40423;53.176;6.002;2023-07-29T11:25:01;21.10;99.90
54518;DHT22;40423;53.176;6.002;2023-07-29T11:27:27;20.90;99.90
54518;DHT22;40423;53.176;6.002;2023-07-29T11:30:01;20.80;99.90
54518;DHT22;40423;53.176;6.002;2023-07-29T11:32:27;20.10;99.90
54518;DHT22;40423;53.176;6.002;2023-07-29T11:34:53;19.70;99.90
54518;DHT22;40423;53.176;6.002;2023-07-29T11:37:19;19.60;99.90
54518;DHT22;40423;53.176;6.002;2023-07-29T11:39:47;19.70;99.90
54518;DHT22;40423;53.176;6.002;2023-07-29T11:42:16;19.80;99.90
54518;DHT22;40423;53.176;6.002;2023-07-29T11:44:42;19.90;99.90
54518;DHT22;40423;53.176;6.002;2023-07-29T11:47:09;19.90;99.90
54518;DHT22;40423;53.176;6.002;2023-07-29T11:49:35;20.40;99.90
54518;DHT22;40423;53.176;6.002;2023-07-29T11:52:03;20.60;99.90
54518;DHT22;40423;53.176;6.002;2023-07-29T11:54:29;20.90;99.90
54518;DHT22;40423;53.176;6.002;2023-07-29T11:56:55;20.80;99.90
54518;DHT22;40423;53.176;6.002;2023-07-29T11:59:21;20.80;99.90
54518;DHT22;40423;53.176;6.002;2023-07-29T12:01:47;20.80;99.90
54518;DHT22;40423;53.176;6.002;2023-07-29T12:04:13;20.70;99.90
54518;DHT22;40423;53.176;6.002;2023-07-29T12:06:39;20.70;99.90
54518;DHT22;40423;53.176;6.002;2023-07-29T12:09:06;20.60;99.90
54518;DHT22;40423;53.176;6.002;2023-07-29T12:11:35;20.60;99.90
54518;DHT22;40423;53.176;6.002;2023-07-29T12:14:01;20.40;99.90
54518;DHT22;40423;53.176;6.002;2023-07-29T12:16:28;20.50;99.90
54518;DHT22;40423;53.176;6.002;2023-07-29T12:19:00;20.60;99.90
54518;DHT22;40423;53.176;6.002;2023-07-29T12:21:26;20.50;99.90
54518;DHT22;40423;53.176;6.002;2023-07-29T12:23:52;20.30;99.90
54518;DHT22;40423;53.176;6.002;2023-07-29T12:26:17;20.50;99.90
54518;DHT22;40423;53.176;6.002;2023-07-29T12:28:47;20.50;99.90
54518;DHT22;40423;53.176;6.002;2023-07-29T12:31:13;20.40;99.90
54518;DHT22;40423;53.176;6.002;2023-07-29T12:33:42;20.40;99.90
54518;DHT22;40423;53.176;6.002;2023-07-29T12:36:07;20.50;99.90
54518;DHT22;40423;53.176;6.002;2023-07-29T12:38:36;20.50;99.90
54518;DHT22;40423;53.176;6.002;2023-07-29T12:41:02;20.60;99.90
54518;DHT22;40423;53.176;6.002;2023-07-29T12:43:28;20.40;99.90
54518;DHT22;40423;53.176;6.002;2023-07-29T12:45:54;20.30;99.90
54518;DHT22;40423;53.176;6.002;2023-07-29T12:48:19;20.30;99.90
54518;DHT22;40423;53.176;6.002;2023-07-29T12:50:45;20.30;99.90
54518;DHT22;40423;53.176;6.002;2023-07-29T12:53:11;20.40;99.90
54518;DHT22;40423;53.176;6.002;2023-07-29T12:55:37;20.80;99.90
54518;DHT22;40423;53.176;6.002;2023-07-29T12:58:06;21.10;99.90
54518;DHT22;40423;53.176;6.002;2023-07-29T13:00:31;21.30;99.90
54518;DHT22;40423;53.176;6.002;2023-07-29T13:02:57;21.30;99.90
54518;DHT22;40423;53.176;6.002;2023-07-29T13:05:23;21.30;99.90
54518;DHT22;40423;53.176;6.002;2023-07-29T13:07:49;21.40;99.90
54518;DHT22;40423;53.176;6.002;2023-07-29T13:10:14;21.30;99.90
54518;DHT22;40423;53.176;6.002;2023-07-29T13:12:40;21.30;99.90
54518;DHT22;40423;53.176;6.002;2023-07-29T13:15:09;21.30;99.90
54518;DHT22;40423;53.176;6.002;2023-07-29T13:17:35;21.50;99.90
54518;DHT22;40423;53.176;6.002;2023-07-29T13:20:04;21.50;99.90
54518;DHT22;40423;53.176;6.002;2023-07-29T13:22:30;21.60;99.90
54518;DHT22;40423;53.176;6.002;2023-07-29T13:24:55;21.60;99.90
54518;DHT22;40423;53.176;6.002;2023-07-29T13:27:24;21.70;99.90
54518;DHT22;40423;53.176;6.002;2023-07-29T13:29:50;22.10;99.90
54518;DHT22;40423;53.176;6.002;2023-07-29T13:32:16;22.40;99.90
54518;DHT22;40423;53.176;6.002;2023-07-29T13:34:42;22.70;99.90
54518;DHT22;40423;53.176;6.002;2023-07-29T13:37:08;22.80;99.90
54518;DHT22;40423;53.176;6.002;2023-07-29T13:39:33;22.80;99.90
54518;DHT22;40423;53.176;6.002;2023-07-29T13:41:59;22.70;99.90
54518;DHT22;40423;53.176;6.002;2023-07-29T13:44:25;22.50;99.90
54518;DHT22;40423;53.176;6.002;2023-07-29T13:46:51;22.70;99.90
54518;DHT22;40423;53.176;6.002;2023-07-29T13:49:17;22.80;99.90
54518;DHT22;40423;53.176;6.002;2023-07-29T13:51:42;22.60;99.90
54518;DHT22;40423;53.176;6.002;2023-07-29T13:54:08;22.50;99.90
54518;DHT22;40423;53.176;6.002;2023-07-29T13:56:34;22.30;99.90
54518;DHT22;40423;53.176;6.002;2023-07-29T13:58:59;22.50;99.90
54518;DHT22;40423;53.176;6.002;2023-07-29T14:01:25;22.70;99.90
54518;DHT22;40423;53.176;6.002;2023-07-29T14:03:51;22.90;99.90
54518;DHT22;40423;53.176;6.002;2023-07-29T14:06:16;23.20;99.90
54518;DHT22;40423;53.176;6.002;2023-07-29T14:08:42;23.10;99.90
54518;DHT22;40423;53.176;6.002;2023-07-29T14:11:08;23.30;99.90
54518;DHT22;40423;53.176;6.002;2023-07-29T14:13:34;23.30;99.90
54518;DHT22;40423;53.176;6.002;2023-07-29T14:16:03;23.20;99.90
54518;DHT22;40423;53.176;6.002;2023-07-29T14:18:30;23.00;99.90
54518;DHT22;40423;53.176;6.002;2023-07-29T14:20:55;23.10;99.90
54518;DHT22;40423;53.176;6.002;2023-07-29T14:23:21;23.40;99.90
54518;DHT22;40423;53.176;6.002;2023-07-29T14:25:47;23.80;99.90
54518;DHT22;40423;53.176;6.002;2023-07-29T14:28:14;24.10;99.90
54518;DHT22;40423;53.176;6.002;2023-07-29T14:30:39;23.90;99.90
54518;DHT22;40423;53.176;6.002;2023-07-29T14:33:06;23.90;99.90
54518;DHT22;40423;53.176;6.002;2023-07-29T14:35:32;23.90;99.90
54518;DHT22;40423;53.176;6.002;2023-07-29T14:37:58;23.80;99.90
54518;DHT22;40423;53.176;6.002;2023-07-29T14:40:27;23.80;99.90
54518;DHT22;40423;53.176;6.002;2023-07-29T14:42:53;23.70;99.90
54518;DHT22;40423;53.176;6.002;2023-07-29T14:45:19;23.60;99.90
54518;DHT22;40423;53.176;6.002;2023-07-29T14:47:45;23.10;99.90
54518;DHT22;40423;53.176;6.002;2023-07-29T14:50:11;23.00;99.90
54518;DHT22;40423;53.176;6.002;2023-07-29T14:52:37;23.00;99.90
54518;DHT22;40423;53.176;6.002;2023-07-29T14:55:05;22.90;99.90
54518;DHT22;40423;53.176;6.002;2023-07-29T14:57:31;22.70;99.90
54518;DHT22;40423;53.176;6.002;2023-07-29T14:59:57;22.80;99.90
54518;DHT22;40423;53.176;6.002;2023-07-29T15:02:22;22.80;99.90
54518;DHT22;40423;53.176;6.002;2023-07-29T15:04:51;22.80;99.90
54518;DHT22;40423;53.176;6.002;2023-07-29T15:07:17;22.80;99.90
54518;DHT22;40423;53.176;6.002;2023-07-29T15:09:42;22.80;99.90
54518;DHT22;40423;53.176;6.002;2023-07-29T15:12:08;22.80;99.90
54518;DHT22;40423;53.176;6.002;2023-07-29T15:14:34;22.70;99.90
54518;DHT22;40423;53.176;6.002;2023-07-29T15:16:59;22.70;99.90
54518;DHT22;40423;53.176;6.002;2023-07-29T15:19:25;22.80;99.90
54518;DHT22;40423;53.176;6.002;2023-07-29T15:21:51;22.80;99.90
54518;DHT22;40423;53.176;6.002;2023-07-29T15:24:20;22.70;99.90
54518;DHT22;40423;53.176;6.002;2023-07-29T15:26:45;22.70;99.90
54518;DHT22;40423;53.176;6.002;2023-07-29T15:29:12;22.50;99.90
54518;DHT22;40423;53.176;6.002;2023-07-29T15:31:40;22.50;99.90
54518;DHT22;40423;53.176;6.002;2023-07-29T15:34:06;22.60;99.90
54518;DHT22;40423;53.176;6.002;2023-07-29T15:36:32;22.60;99.90
54518;DHT22;40423;53.176;6.002;2023-07-29T15:38:58;22.60;99.90
54518;DHT22;40423;53.176;6.002;2023-07-29T15:41:24;22.40;99.90
54518;DHT22;40423;53.176;6.002;2023-07-29T15:43:49;22.40;99.90
54518;DHT22;40423;53.176;6.002;2023-07-29T15:46:15;22.50;99.90
54518;DHT22;40423;53.176;6.002;2023-07-29T15:48:41;22.50;99.90
54518;DHT22;40423;53.176;6.002;2023-07-29T15:51:06;22.50;99.90
54518;DHT22;40423;53.176;6.002;2023-07-29T15:53:33;22.50;99.90